Back to Top

Language: 

My Weather Underground Personal Weather Station Historical Data with Graphs...

Delerius Weather Station Historical Data
Daily Summary for November 8, 2017 Units:  Metric    English   Both
« Previous Day
Next Day »
Daily Weekly Monthly Yearly Custom
  High: Low: Average:
Temperature: 10.8 °C 1.8 °C 5.9 °C
Dew Point: 5.3 °C 0.4 °C 3.2 °C
Humidity: 94 % 64 % 83 %
Wind Speed: 12.9 km/h 0 km/h 4.7 km/h
Wind Gust: 20.9 km/h - -
Wind:- - WNW
Pressure: 1024.3 hPa 1018.5 hPa -
Precipitation: 0 mm    
Historical Graphs
 
 
Tabular Data for November 8, 2017
Time Temperature Dew Point Pressure Wind Wind Speed Wind Gust Humidity Rainfall Rate (Hourly) solar Conditions
00:02 5.9 °C 4.2 °C 1018.5 hPa WNW 4.8 km/h 11.3 km/h 89 % 0 mm 0 W/m2
00:07 5.9 °C 4.2 °C 1018.5 hPa WNW 6.4 km/h 14.5 km/h 89 % 0 mm 0 W/m2
00:12 5.9 °C 4.1 °C 1018.5 hPa WNW 6.4 km/h 11.3 km/h 88 % 0 mm 0 W/m2
00:17 5.9 °C 4.1 °C 1018.5 hPa WNW 8 km/h 12.9 km/h 88 % 0 mm 0 W/m2
00:22 6 °C 4.2 °C 1018.5 hPa NW 9.7 km/h 12.9 km/h 88 % 0 mm 0 W/m2
00:27 6 °C 4.2 °C 1018.5 hPa NW 3.2 km/h 9.7 km/h 88 % 0 mm 0 W/m2
00:32 6 °C 4.2 °C 1018.5 hPa NW 6.4 km/h 11.3 km/h 88 % 0 mm 0 W/m2
00:37 6 °C 4.2 °C 1018.5 hPa WNW 6.4 km/h 11.3 km/h 88 % 0 mm 0 W/m2
00:42 6 °C 4.2 °C 1018.8 hPa WNW 9.7 km/h 14.5 km/h 88 % 0 mm 0 W/m2
00:47 6 °C 4.2 °C 1018.8 hPa WNW 9.7 km/h 12.9 km/h 88 % 0 mm 0 W/m2
00:52 6 °C 4.2 °C 1018.8 hPa NW 8 km/h 14.5 km/h 88 % 0 mm 0 W/m2
00:57 6 °C 4 °C 1018.8 hPa NW 8 km/h 11.3 km/h 87 % 0 mm 0 W/m2
01:02 5.9 °C 4.1 °C 1018.8 hPa WNW 9.7 km/h 14.5 km/h 88 % 0 mm 0 W/m2
01:07 5.9 °C 4.1 °C 1018.8 hPa WNW 8 km/h 14.5 km/h 88 % 0 mm 0 W/m2
01:22 5.7 °C 3.9 °C 1018.8 hPa WNW 9.7 km/h 14.5 km/h 88 % 0 mm 0 W/m2
01:27 5.7 °C 3.9 °C 1018.8 hPa WNW 9.7 km/h 14.5 km/h 88 % 0 mm 0 W/m2
01:32 5.7 °C 3.9 °C 1018.8 hPa WNW 8 km/h 11.3 km/h 88 % 0 mm 0 W/m2
01:37 5.6 °C 3.8 °C 1019.2 hPa WNW 8 km/h 12.9 km/h 88 % 0 mm 0 W/m2
01:38 5.6 °C 3.8 °C 1019.2 hPa WNW 8 km/h 12.9 km/h 88 % 0 mm 0 W/m2
01:43 5.6 °C 3.8 °C 1019.2 hPa WNW 6.4 km/h 11.3 km/h 88 % 0 mm 0 W/m2
01:48 5.5 °C 3.7 °C 1019.2 hPa WNW 6.4 km/h 12.9 km/h 88 % 0 mm 0 W/m2
01:53 5.4 °C 3.6 °C 1019.2 hPa WNW 6.4 km/h 11.3 km/h 88 % 0 mm 0 W/m2
01:58 5.4 °C 3.6 °C 1019.2 hPa NW 6.4 km/h 12.9 km/h 88 % 0 mm 0 W/m2
02:03 5.3 °C 3.5 °C 1019.2 hPa WNW 6.4 km/h 11.3 km/h 88 % 0 mm 0 W/m2
02:08 5.3 °C 3.5 °C 1019.2 hPa WNW 6.4 km/h 11.3 km/h 88 % 0 mm 0 W/m2
02:13 5.2 °C 3.4 °C 1019.2 hPa WNW 9.7 km/h 14.5 km/h 88 % 0 mm 0 W/m2
02:18 5.1 °C 3.3 °C 1019.2 hPa WNW 8 km/h 12.9 km/h 88 % 0 mm 0 W/m2
02:23 5.1 °C 3.3 °C 1019.2 hPa WNW 9.7 km/h 17.7 km/h 88 % 0 mm 0 W/m2
02:28 5.1 °C 3.4 °C 1019.2 hPa WNW 8 km/h 14.5 km/h 89 % 0 mm 0 W/m2
02:33 5 °C 3.2 °C 1019.2 hPa WNW 9.7 km/h 14.5 km/h 88 % 0 mm 0 W/m2
02:38 5 °C 3.2 °C 1019.5 hPa WNW 9.7 km/h 12.9 km/h 88 % 0 mm 0 W/m2
02:43 4.9 °C 3.1 °C 1019.5 hPa WNW 4.8 km/h 11.3 km/h 88 % 0 mm 0 W/m2
02:48 4.9 °C 3.1 °C 1019.5 hPa NW 4.8 km/h 9.7 km/h 88 % 0 mm 0 W/m2
02:53 4.8 °C 3 °C 1019.5 hPa NW 4.8 km/h 9.7 km/h 88 % 0 mm 0 W/m2
02:58 4.8 °C 3 °C 1019.9 hPa NNW 3.2 km/h 9.7 km/h 88 % 0 mm 0 W/m2
03:03 4.8 °C 2.8 °C 1019.9 hPa NNW 3.2 km/h 8 km/h 87 % 0 mm 0 W/m2
03:08 4.7 °C 2.7 °C 1019.9 hPa NNW 1.6 km/h 6.4 km/h 87 % 0 mm 0 W/m2
03:14 4.7 °C 2.9 °C 1019.9 hPa NW 4.8 km/h 11.3 km/h 88 % 0 mm 0 W/m2
03:19 4.6 °C 2.8 °C 1019.9 hPa NW 8 km/h 11.3 km/h 88 % 0 mm 0 W/m2
03:22 4.6 °C 2.8 °C 1019.9 hPa NW 8 km/h 12.9 km/h 88 % 0 mm 0 W/m2
03:27 4.7 °C 2.9 °C 1020.2 hPa NW 6.4 km/h 11.3 km/h 88 % 0 mm 0 W/m2
03:32 4.7 °C 2.9 °C 1020.2 hPa NW 8 km/h 12.9 km/h 88 % 0 mm 0 W/m2
03:37 4.7 °C 2.9 °C 1020.2 hPa NW 6.4 km/h 12.9 km/h 88 % 0 mm 0 W/m2
03:42 4.7 °C 2.9 °C 1020.2 hPa NW 8 km/h 12.9 km/h 88 % 0 mm 0 W/m2
03:47 4.7 °C 2.9 °C 1020.2 hPa WNW 8 km/h 12.9 km/h 88 % 0 mm 0 W/m2
03:52 4.6 °C 2.6 °C 1020.5 hPa NW 6.4 km/h 9.7 km/h 87 % 0 mm 0 W/m2
03:57 4.6 °C 2.6 °C 1020.2 hPa NW 6.4 km/h 12.9 km/h 87 % 0 mm 0 W/m2
04:03 4.5 °C 2.7 °C 1020.5 hPa NW 8 km/h 11.3 km/h 88 % 0 mm 0 W/m2
04:08 4.4 °C 2.6 °C 1020.5 hPa NW 9.7 km/h 12.9 km/h 88 % 0 mm 0 W/m2
04:13 4.3 °C 2.5 °C 1020.5 hPa NW 8 km/h 11.3 km/h 88 % 0 mm 0 W/m2
04:18 4.3 °C 2.5 °C 1020.5 hPa NW 6.4 km/h 11.3 km/h 88 % 0 mm 0 W/m2
04:23 4.2 °C 2.4 °C 1020.5 hPa WNW 9.7 km/h 14.5 km/h 88 % 0 mm 0 W/m2
04:24 4.2 °C 2.4 °C 1020.5 hPa WNW 9.7 km/h 14.5 km/h 88 % 0 mm 0 W/m2
04:29 4.1 °C 2.3 °C 1020.5 hPa NW 8 km/h 12.9 km/h 88 % 0 mm 0 W/m2
04:34 4.1 °C 2.3 °C 1020.5 hPa WNW 8 km/h 11.3 km/h 88 % 0 mm 0 W/m2
04:44 3.9 °C 2.1 °C 1020.5 hPa NW 8 km/h 11.3 km/h 88 % 0 mm 0 W/m2
04:49 3.8 °C 2 °C 1020.9 hPa NW 8 km/h 12.9 km/h 88 % 0 mm 0 W/m2
04:54 3.8 °C 2 °C 1020.9 hPa NW 9.7 km/h 14.5 km/h 88 % 0 mm 0 W/m2
04:59 3.8 °C 2 °C 1020.9 hPa WNW 8 km/h 11.3 km/h 88 % 0 mm 0 W/m2
05:04 3.7 °C 1.9 °C 1020.9 hPa WNW 6.4 km/h 12.9 km/h 88 % 0 mm 0 W/m2
05:09 3.7 °C 1.9 °C 1020.9 hPa WNW 9.7 km/h 12.9 km/h 88 % 0 mm 0 W/m2
05:14 3.7 °C 1.9 °C 1020.9 hPa WNW 9.7 km/h 14.5 km/h 88 % 0 mm 0 W/m2
05:19 3.7 °C 1.9 °C 1020.9 hPa WNW 8 km/h 14.5 km/h 88 % 0 mm 0 W/m2
05:24 3.7 °C 1.9 °C 1021.2 hPa WNW 9.7 km/h 14.5 km/h 88 % 0 mm 0 W/m2
05:29 3.7 °C 1.9 °C 1021.2 hPa WNW 8 km/h 12.9 km/h 88 % 0 mm 0 W/m2
05:34 3.6 °C 1.6 °C 1021.2 hPa WNW 8 km/h 12.9 km/h 87 % 0 mm 0 W/m2
05:39 3.5 °C 1.6 °C 1021.2 hPa WNW 6.4 km/h 11.3 km/h 87 % 0 mm 0 W/m2
05:44 3.4 °C 1.6 °C 1021.2 hPa NW 4.8 km/h 9.7 km/h 88 % 0 mm 0 W/m2
05:49 3.3 °C 1.5 °C 1021.2 hPa WNW 6.4 km/h 11.3 km/h 88 % 0 mm 0 W/m2
05:54 3.3 °C 1.5 °C 1021.6 hPa WNW 4.8 km/h 8 km/h 88 % 0 mm 0 W/m2
05:59 3.2 °C 1.4 °C 1021.6 hPa NW 4.8 km/h 9.7 km/h 88 % 0 mm 0 W/m2
06:04 3.1 °C 1.3 °C 1021.6 hPa NW 3.2 km/h 8 km/h 88 % 0 mm 0 W/m2
06:09 3 °C 1.2 °C 1021.6 hPa NW 3.2 km/h 6.4 km/h 88 % 0 mm 0 W/m2
06:14 2.9 °C 1.1 °C 1021.6 hPa NW 3.2 km/h 8 km/h 88 % 0 mm 0 W/m2
06:19 2.8 °C 1 °C 1021.9 hPa Calm   1.6 km/h 88 % 0 mm 0 W/m2
06:24 2.7 °C 0.9 °C 1021.9 hPa NW 1.6 km/h 3.2 km/h 88 % 0 mm 0 W/m2
06:29 2.6 °C 0.8 °C 1021.9 hPa Calm   1.6 km/h 88 % 0 mm 0 W/m2
06:34 2.4 °C 0.6 °C 1021.9 hPa NW 1.6 km/h 3.2 km/h 88 % 0 mm 0 W/m2
06:39 2.2 °C 0.4 °C 1021.9 hPa NW 4.8 km/h 8 km/h 88 % 0 mm 0 W/m2
06:44 2.1 °C 0.5 °C 1021.9 hPa NW 4.8 km/h 8 km/h 89 % 0 mm 0 W/m2
06:49 2.1 °C 0.5 °C 1022.2 hPa WNW 3.2 km/h 8 km/h 89 % 0 mm 0 W/m2
06:55 2 °C 0.6 °C 1022.2 hPa NW 4.8 km/h 8 km/h 90 % 0 mm 0 W/m2
07:00 2 °C 0.6 °C 1022.2 hPa WNW 1.6 km/h 6.4 km/h 90 % 0 mm 0 W/m2
07:05 2 °C 0.6 °C 1022.2 hPa WNW 1.6 km/h 4.8 km/h 90 % 0 mm 0 W/m2
07:10 1.9 °C 0.4 °C 1022.2 hPa NW 3.2 km/h 8 km/h 90 % 0 mm 0 W/m2
07:15 1.8 °C 0.5 °C 1022.2 hPa WNW 4.8 km/h 8 km/h 91 % 0 mm 5 W/m2
07:20 1.8 °C 0.5 °C 1022.6 hPa WNW 1.6 km/h 6.4 km/h 91 % 0 mm 5 W/m2
07:25 1.8 °C 0.5 °C 1022.6 hPa WNW 4.8 km/h 8 km/h 91 % 0 mm 7 W/m2
07:30 1.8 °C 0.5 °C 1022.9 hPa WNW 4.8 km/h 9.7 km/h 91 % 0 mm 11 W/m2
07:35 1.8 °C 0.5 °C 1022.9 hPa WNW 3.2 km/h 9.7 km/h 91 % 0 mm 12 W/m2
07:40 1.8 °C 0.5 °C 1022.9 hPa WNW 6.4 km/h 9.7 km/h 91 % 0 mm 14 W/m2
07:45 1.9 °C 0.7 °C 1022.9 hPa WNW 9.7 km/h 14.5 km/h 92 % 0 mm 16 W/m2
07:50 2.2 °C 1.1 °C 1022.9 hPa WNW 8 km/h 11.3 km/h 92 % 0 mm 18 W/m2
07:55 2.4 °C 1.2 °C 1022.9 hPa NW 4.8 km/h 11.3 km/h 92 % 0 mm 18 W/m2
08:00 2.5 °C 1.2 °C 1023.2 hPa NW 4.8 km/h 9.7 km/h 91 % 0 mm 19 W/m2
08:05 2.7 °C 1.4 °C 1023.2 hPa WNW 8 km/h 12.9 km/h 91 % 0 mm 21 W/m2
08:10 2.9 °C 1.4 °C 1023.2 hPa NW 6.4 km/h 11.3 km/h 90 % 0 mm 23 W/m2
08:15 3.1 °C 1.4 °C 1023.2 hPa WNW 4.8 km/h 9.7 km/h 89 % 0 mm 23 W/m2
08:20 3.2 °C 1.6 °C 1023.6 hPa WNW 4.8 km/h 9.7 km/h 89 % 0 mm 25 W/m2
08:25 3.4 °C 1.6 °C 1023.6 hPa WNW 6.4 km/h 11.3 km/h 88 % 0 mm 26 W/m2
08:30 3.6 °C 1.8 °C 1023.6 hPa WNW 4.8 km/h 8 km/h 88 % 0 mm 26 W/m2
08:35 3.8 °C 1.8 °C 1023.6 hPa WNW 3.2 km/h 8 km/h 87 % 0 mm 28 W/m2
08:40 3.9 °C 1.9 °C 1023.6 hPa WNW 3.2 km/h 9.7 km/h 87 % 0 mm 30 W/m2
08:45 4.1 °C 1.9 °C 1023.6 hPa WNW 4.8 km/h 9.7 km/h 86 % 0 mm 63 W/m2
08:50 4.3 °C 2.2 °C 1023.6 hPa WNW 4.8 km/h 9.7 km/h 86 % 0 mm 165 W/m2
08:55 4.5 °C 2.3 °C 1023.6 hPa WNW 6.4 km/h 9.7 km/h 86 % 0 mm 178 W/m2
09:00 4.7 °C 2.4 °C 1023.6 hPa WNW 4.8 km/h 9.7 km/h 85 % 0 mm 185 W/m2
09:05 4.9 °C 2.4 °C 1023.6 hPa WNW 8 km/h 11.3 km/h 84 % 0 mm 197 W/m2
09:10 5.3 °C 3 °C 1023.6 hPa WNW 4.8 km/h 9.7 km/h 85 % 0 mm 207 W/m2
09:15 5.7 °C 3.1 °C 1023.6 hPa WNW 4.8 km/h 11.3 km/h 83 % 0 mm 216 W/m2
09:20 6.1 °C 3.3 °C 1023.6 hPa WNW 6.4 km/h 11.3 km/h 82 % 0 mm 225 W/m2
09:25 6.4 °C 3.4 °C 1023.6 hPa WNW 6.4 km/h 9.7 km/h 81 % 0 mm 237 W/m2
09:31 6.8 °C 3.4 °C 1023.6 hPa WNW 8 km/h 14.5 km/h 79 % 0 mm 244 W/m2
09:36 7 °C 3.4 °C 1023.9 hPa WNW 8 km/h 12.9 km/h 78 % 0 mm 253 W/m2
09:41 7.2 °C 3.4 °C 1023.9 hPa WNW 8 km/h 14.5 km/h 77 % 0 mm 260 W/m2
09:46 7.4 °C 3.4 °C 1023.9 hPa WNW 9.7 km/h 12.9 km/h 76 % 0 mm 269 W/m2
09:51 7.6 °C 3.6 °C 1023.9 hPa WNW 8 km/h 11.3 km/h 76 % 0 mm 278 W/m2
09:56 7.8 °C 3.4 °C 1023.9 hPa WNW 8 km/h 14.5 km/h 74 % 0 mm 287 W/m2
10:01 7.9 °C 3.6 °C 1023.9 hPa WNW 8 km/h 12.9 km/h 74 % 0 mm 292 W/m2
10:06 8.1 °C 3.6 °C 1023.9 hPa NW 4.8 km/h 9.7 km/h 73 % 0 mm 299 W/m2
10:11 8.3 °C 3.6 °C 1023.9 hPa WNW 9.7 km/h 14.5 km/h 72 % 0 mm 308 W/m2
10:16 8.4 °C 3.7 °C 1023.9 hPa NW 6.4 km/h 11.3 km/h 72 % 0 mm 315 W/m2
10:21 8.6 °C 3.6 °C 1023.9 hPa WNW 9.7 km/h 14.5 km/h 71 % 0 mm 320 W/m2
10:26 8.7 °C 3.7 °C 1023.9 hPa WNW 6.4 km/h 11.3 km/h 71 % 0 mm 327 W/m2
10:31 8.9 °C 3.7 °C 1024.3 hPa NW 3.2 km/h 9.7 km/h 70 % 0 mm 332 W/m2
10:36 9.2 °C 3.8 °C 1023.9 hPa NW 4.8 km/h 12.9 km/h 69 % 0 mm 338 W/m2
10:41 9.2 °C 3.4 °C 1023.9 hPa WNW 8 km/h 12.9 km/h 67 % 0 mm 343 W/m2
10:46 9.3 °C 3.5 °C 1023.9 hPa WNW 8 km/h 12.9 km/h 67 % 0 mm 348 W/m2
10:51 9.3 °C 3.7 °C 1024.3 hPa NW 4.8 km/h 8 km/h 68 % 0 mm 352 W/m2
10:56 9.5 °C 3.9 °C 1024.3 hPa NW 4.8 km/h 11.3 km/h 68 % 0 mm 355 W/m2
11:01 9.8 °C 4.2 °C 1024.3 hPa NW 3.2 km/h 11.3 km/h 68 % 0 mm 359 W/m2
11:06 9.9 °C 3.8 °C 1024.3 hPa WNW 9.7 km/h 14.5 km/h 66 % 0 mm 362 W/m2
11:11 9.9 °C 4.1 °C 1024.3 hPa NW 8 km/h 16.1 km/h 67 % 0 mm 369 W/m2
11:16 10 °C 4.2 °C 1024.3 hPa WNW 6.4 km/h 14.5 km/h 67 % 0 mm 371 W/m2
11:21 10.1 °C 4.1 °C 1024.3 hPa NW 6.4 km/h 14.5 km/h 66 % 0 mm 378 W/m2
11:26 10.2 °C 4.1 °C 1024.3 hPa WNW 9.7 km/h 14.5 km/h 66 % 0 mm 381 W/m2
11:31 10.3 °C 4.4 °C 1024.3 hPa NNW 8 km/h 17.7 km/h 67 % 0 mm 383 W/m2
11:36 10.3 °C 4.4 °C 1024.3 hPa NW 9.7 km/h 17.7 km/h 67 % 0 mm 306 W/m2
11:41 10.3 °C 4.4 °C 1024.3 hPa NW 9.7 km/h 16.1 km/h 67 % 0 mm 341 W/m2
11:46 10.2 °C 4.3 °C 1023.9 hPa NW 11.3 km/h 19.3 km/h 67 % 0 mm 374 W/m2
11:51 10.2 °C 4.6 °C 1024.3 hPa NW 11.3 km/h 16.1 km/h 68 % 0 mm 367 W/m2
11:56 10.3 °C 4.7 °C 1023.9 hPa NW 11.3 km/h 16.1 km/h 68 % 0 mm 359 W/m2
12:01 10.3 °C 5.1 °C 1023.9 hPa WNW 9.7 km/h 14.5 km/h 70 % 0 mm 352 W/m2
12:06 10.4 °C 5.2 °C 1023.9 hPa WNW 6.4 km/h 11.3 km/h 70 % 0 mm 360 W/m2
12:11 10.4 °C 4.9 °C 1023.9 hPa NNW 8 km/h 11.3 km/h 69 % 0 mm 341 W/m2
12:16 10.5 °C 4.8 °C 1024.3 hPa NW 6.4 km/h 16.1 km/h 68 % 0 mm 345 W/m2
12:22 10.5 °C 4.8 °C 1024.3 hPa NNW 6.4 km/h 12.9 km/h 68 % 0 mm 330 W/m2
12:27 10.4 °C 4.6 °C 1024.3 hPa NW 8 km/h 14.5 km/h 67 % 0 mm 330 W/m2
12:32 10.6 °C 4.9 °C 1024.3 hPa NW 8 km/h 12.9 km/h 68 % 0 mm 330 W/m2
12:37 10.7 °C 5.1 °C 1024.3 hPa NNW 8 km/h 14.5 km/h 68 % 0 mm 338 W/m2
12:42 10.8 °C 4.9 °C 1024.3 hPa NW 8 km/h 14.5 km/h 67 % 0 mm 315 W/m2
12:47 10.7 °C 4.6 °C 1024.3 hPa NW 12.9 km/h 19.3 km/h 66 % 0 mm 325 W/m2
12:52 10.7 °C 4.6 °C 1024.3 hPa NW 8 km/h 17.7 km/h 66 % 0 mm 318 W/m2
12:57 10.7 °C 4.8 °C 1024.3 hPa NW 4.8 km/h 11.3 km/h 67 % 0 mm 345 W/m2
13:02 10.8 °C 4.7 °C 1024.3 hPa WNW 12.9 km/h 20.9 km/h 66 % 0 mm 316 W/m2
13:07 10.8 °C 4.3 °C 1024.3 hPa NW 11.3 km/h 16.1 km/h 64 % 0 mm 295 W/m2
13:12 10.8 °C 4.3 °C 1024.3 hPa NW 8 km/h 14.5 km/h 64 % 0 mm 297 W/m2
13:17 10.8 °C 4.5 °C 1024.3 hPa NW 9.7 km/h 14.5 km/h 65 % 0 mm 279 W/m2
13:22 10.8 °C 4.5 °C 1024.3 hPa NW 11.3 km/h 17.7 km/h 65 % 0 mm 283 W/m2
13:27 10.7 °C 4.6 °C 1024.3 hPa NW 9.7 km/h 16.1 km/h 66 % 0 mm 267 W/m2
13:32 10.6 °C 4.3 °C 1024.3 hPa WNW 9.7 km/h 17.7 km/h 65 % 0 mm 265 W/m2
13:37 10.7 °C 4.4 °C 1024.3 hPa WNW 8 km/h 16.1 km/h 65 % 0 mm 267 W/m2
13:42 10.7 °C 4.2 °C 1024.3 hPa WNW 11.3 km/h 17.7 km/h 64 % 0 mm 236 W/m2
13:47 10.7 °C 4.2 °C 1024.3 hPa WNW 9.7 km/h 17.7 km/h 64 % 0 mm 237 W/m2
13:52 10.7 °C 4.4 °C 1023.9 hPa WNW 4.8 km/h 9.7 km/h 65 % 0 mm 260 W/m2
13:57 10.7 °C 4.6 °C 1023.9 hPa NNW 6.4 km/h 12.9 km/h 66 % 0 mm 250 W/m2
14:02 10.7 °C 4.8 °C 1023.9 hPa WNW 8 km/h 12.9 km/h 67 % 0 mm 236 W/m2
14:07 10.7 °C 4.8 °C 1023.9 hPa West 9.7 km/h 14.5 km/h 67 % 0 mm 176 W/m2
14:12 10.6 °C 4.7 °C 1023.9 hPa West 6.4 km/h 12.9 km/h 67 % 0 mm 171 W/m2
14:17 10.4 °C 4.3 °C 1023.9 hPa West 8 km/h 17.7 km/h 66 % 0 mm 165 W/m2
14:22 10.4 °C 4.6 °C 1023.9 hPa WNW 6.4 km/h 11.3 km/h 67 % 0 mm 181 W/m2
14:25 10.4 °C 4.7 °C 1023.9 hPa West 6.4 km/h 14.5 km/h 68 % 0 mm 197 W/m2
14:30 10.5 °C 4.8 °C 1023.9 hPa WNW 4.8 km/h 11.3 km/h 68 % 0 mm 206 W/m2
14:35 10.6 °C 4.9 °C 1023.9 hPa West 4.8 km/h 9.7 km/h 68 % 0 mm 142 W/m2
14:40 10.6 °C 4.7 °C 1023.9 hPa WSW 6.4 km/h 9.7 km/h 67 % 0 mm 202 W/m2
14:45 10.6 °C 4.7 °C 1023.9 hPa WSW 8 km/h 12.9 km/h 67 % 0 mm 192 W/m2
14:50 10.4 °C 4.7 °C 1023.9 hPa West 6.4 km/h 12.9 km/h 68 % 0 mm 127 W/m2
14:55 10.2 °C 4.6 °C 1023.9 hPa West 6.4 km/h 12.9 km/h 68 % 0 mm 70 W/m2
15:00 9.9 °C 4.7 °C 1023.9 hPa West 6.4 km/h 11.3 km/h 70 % 0 mm 88 W/m2
15:05 9.7 °C 4.5 °C 1023.9 hPa West 11.3 km/h 17.7 km/h 70 % 0 mm 79 W/m2
15:10 9.5 °C 4.5 °C 1023.9 hPa WNW 8 km/h 14.5 km/h 71 % 0 mm 33 W/m2
15:15 9.3 °C 4.5 °C 1023.9 hPa West 9.7 km/h 14.5 km/h 72 % 0 mm 28 W/m2
15:20 9.2 °C 4.6 °C 1023.9 hPa WNW 6.4 km/h 11.3 km/h 73 % 0 mm 23 W/m2
15:25 9.1 °C 4.5 °C 1023.9 hPa West 4.8 km/h 11.3 km/h 73 % 0 mm 21 W/m2
15:30 8.9 °C 4.5 °C 1024.3 hPa West 6.4 km/h 11.3 km/h 74 % 0 mm 19 W/m2
15:35 8.7 °C 4.5 °C 1024.3 hPa West 6.4 km/h 12.9 km/h 75 % 0 mm 18 W/m2
15:40 8.4 °C 4.2 °C 1024.3 hPa West 4.8 km/h 12.9 km/h 75 % 0 mm 18 W/m2
15:45 8.3 °C 4.3 °C 1024.3 hPa WNW 3.2 km/h 8 km/h 76 % 0 mm 18 W/m2
15:50 8.2 °C 4.2 °C 1024.3 hPa WNW 1.6 km/h 6.4 km/h 76 % 0 mm 18 W/m2
15:55 8 °C 4.2 °C 1024.3 hPa Calm     77 % 0 mm 14 W/m2
16:00 7.8 °C 4 °C 1024.3 hPa Calm   1.6 km/h 77 % 0 mm 11 W/m2
16:05 7.7 °C 3.9 °C 1024.3 hPa WNW 1.6 km/h 3.2 km/h 77 % 0 mm 9 W/m2
16:10 7.5 °C 3.9 °C 1024.3 hPa Calm   3.2 km/h 78 % 0 mm 7 W/m2
16:15 7.3 °C 3.7 °C 1024.3 hPa Calm     78 % 0 mm 5 W/m2
16:20 7.1 °C 3.5 °C 1024.3 hPa Calm     78 % 0 mm 0 W/m2
16:25 6.9 °C 3.5 °C 1024.3 hPa Calm     79 % 0 mm 0 W/m2
16:30 6.7 °C 3.5 °C 1024.3 hPa Calm     80 % 0 mm 0 W/m2
16:35 6.4 °C 3.2 °C 1024.3 hPa Calm     80 % 0 mm 0 W/m2
16:40 6.2 °C 3.2 °C 1024.3 hPa Calm     81 % 0 mm 0 W/m2
16:45 6.1 °C 3.3 °C 1024.3 hPa WNW 1.6 km/h 3.2 km/h 82 % 0 mm 0 W/m2
16:50 5.9 °C 3.2 °C 1024.3 hPa WNW 1.6 km/h 4.8 km/h 83 % 0 mm 0 W/m2
16:55 5.8 °C 3.3 °C 1024.3 hPa Calm   1.6 km/h 84 % 0 mm 0 W/m2
17:01 5.7 °C 3.2 °C 1024.3 hPa Calm     84 % 0 mm 0 W/m2
17:06 5.6 °C 3.1 °C 1024.3 hPa Calm     84 % 0 mm 0 W/m2
17:11 5.4 °C 2.9 °C 1024.3 hPa Calm     84 % 0 mm 0 W/m2
17:16 5.2 °C 2.9 °C 1024.3 hPa Calm     85 % 0 mm 0 W/m2
17:21 5.1 °C 2.8 °C 1023.9 hPa Calm   1.6 km/h 85 % 0 mm 0 W/m2
17:26 4.9 °C 2.6 °C 1023.9 hPa Calm     85 % 0 mm 0 W/m2
17:31 4.8 °C 2.7 °C 1023.9 hPa Calm     86 % 0 mm 0 W/m2
17:36 4.7 °C 2.6 °C 1023.9 hPa Calm     86 % 0 mm 0 W/m2
17:41 4.6 °C 2.6 °C 1023.9 hPa Calm     87 % 0 mm 0 W/m2
17:46 4.5 °C 2.5 °C 1024.3 hPa Calm     87 % 0 mm 0 W/m2
17:51 4.4 °C 2.4 °C 1024.3 hPa Calm     87 % 0 mm 0 W/m2
17:56 4.3 °C 2.3 °C 1024.3 hPa Calm     87 % 0 mm 0 W/m2
18:01 4.2 °C 2.4 °C 1024.3 hPa Calm     88 % 0 mm 0 W/m2
18:06 4.1 °C 2.3 °C 1024.3 hPa Calm     88 % 0 mm 0 W/m2
18:16 3.9 °C 2.3 °C 1024.3 hPa Calm     89 % 0 mm 0 W/m2
18:21 3.8 °C 2.2 °C 1024.3 hPa Calm     89 % 0 mm 0 W/m2
18:26 3.8 °C 2.2 °C 1024.3 hPa Calm     89 % 0 mm 0 W/m2
18:31 3.7 °C 2.1 °C 1024.3 hPa Calm     89 % 0 mm 0 W/m2
18:36 3.6 °C 2.1 °C 1023.9 hPa Calm     90 % 0 mm 0 W/m2
18:41 3.5 °C 2 °C 1023.9 hPa Calm     90 % 0 mm 0 W/m2
18:46 3.4 °C 1.9 °C 1023.9 hPa Calm     90 % 0 mm 0 W/m2
18:51 3.3 °C 1.8 °C 1023.9 hPa Calm     90 % 0 mm 0 W/m2
18:56 3.3 °C 1.9 °C 1023.9 hPa Calm     91 % 0 mm 0 W/m2
19:01 3.3 °C 1.9 °C 1023.9 hPa Calm     91 % 0 mm 0 W/m2
19:06 3.3 °C 1.9 °C 1023.9 hPa Calm     91 % 0 mm 0 W/m2
19:11 3.2 °C 1.9 °C 1023.9 hPa Calm     91 % 0 mm 0 W/m2
19:16 3.1 °C 1.8 °C 1023.9 hPa Calm     91 % 0 mm 0 W/m2
19:21 2.9 °C 1.6 °C 1023.9 hPa Calm   1.6 km/h 91 % 0 mm 0 W/m2
19:26 3 °C 1.7 °C 1023.9 hPa Calm   1.6 km/h 91 % 0 mm 0 W/m2
19:31 3 °C 1.8 °C 1023.9 hPa Calm     92 % 0 mm 0 W/m2
19:36 3 °C 1.8 °C 1023.9 hPa Calm     92 % 0 mm 0 W/m2
19:41 3.1 °C 1.9 °C 1023.9 hPa Calm     92 % 0 mm 0 W/m2
19:46 3.1 °C 1.9 °C 1023.9 hPa Calm     92 % 0 mm 0 W/m2
19:51 3.1 °C 2.1 °C 1023.6 hPa Calm     93 % 0 mm 0 W/m2
19:56 3.1 °C 2.1 °C 1023.6 hPa Calm     93 % 0 mm 0 W/m2
19:58 3.1 °C 2.1 °C 1023.6 hPa Calm     93 % 0 mm 0 W/m2
20:03 3.1 °C 2.1 °C 1023.6 hPa Calm     93 % 0 mm 0 W/m2
20:08 3.2 °C 2.2 °C 1023.6 hPa Calm     93 % 0 mm 0 W/m2
20:13 3.3 °C 2.4 °C 1023.6 hPa Calm     94 % 0 mm 0 W/m2
20:18 3.5 °C 2.6 °C 1023.6 hPa Calm     94 % 0 mm 0 W/m2
20:23 3.7 °C 2.8 °C 1023.6 hPa Calm     94 % 0 mm 0 W/m2
20:28 3.8 °C 2.9 °C 1023.6 hPa Calm     94 % 0 mm 0 W/m2
20:33 3.8 °C 2.9 °C 1023.2 hPa Calm     94 % 0 mm 0 W/m2
20:38 3.8 °C 2.8 °C 1023.2 hPa Calm     93 % 0 mm 0 W/m2
20:43 3.8 °C 2.8 °C 1023.2 hPa Calm     93 % 0 mm 0 W/m2
20:48 3.9 °C 2.9 °C 1023.2 hPa Calm     93 % 0 mm 0 W/m2
20:53 3.9 °C 3 °C 1023.2 hPa Calm     94 % 0 mm 0 W/m2
20:58 4 °C 2.9 °C 1023.2 hPa Calm     93 % 0 mm 0 W/m2
21:03 4 °C 2.9 °C 1023.2 hPa Calm     93 % 0 mm 0 W/m2
21:08 4 °C 2.9 °C 1022.9 hPa Calm     93 % 0 mm 0 W/m2
21:13 4 °C 2.9 °C 1022.9 hPa Calm     93 % 0 mm 0 W/m2
21:18 4 °C 2.9 °C 1022.9 hPa South 1.6 km/h 9.7 km/h 93 % 0 mm 0 W/m2
21:23 4.1 °C 3.1 °C 1022.9 hPa Calm   1.6 km/h 93 % 0 mm 0 W/m2
21:28 4.2 °C 3.2 °C 1022.9 hPa South 1.6 km/h 3.2 km/h 93 % 0 mm 0 W/m2
21:33 4.3 °C 3.3 °C 1022.9 hPa West 3.2 km/h 6.4 km/h 93 % 0 mm 0 W/m2
21:38 4.4 °C 3.4 °C 1022.9 hPa West 1.6 km/h 4.8 km/h 93 % 0 mm 0 W/m2
21:44 4.5 °C 3.4 °C 1022.9 hPa Calm   4.8 km/h 93 % 0 mm 0 W/m2
21:49 4.6 °C 3.6 °C 1022.9 hPa WNW 1.6 km/h 3.2 km/h 93 % 0 mm 0 W/m2
21:54 4.7 °C 3.7 °C 1022.9 hPa WNW 1.6 km/h 3.2 km/h 93 % 0 mm 0 W/m2
21:59 4.9 °C 3.7 °C 1022.9 hPa Calm   3.2 km/h 92 % 0 mm 0 W/m2
22:04 5 °C 3.8 °C 1022.6 hPa Calm   1.6 km/h 92 % 0 mm 0 W/m2
22:09 5.1 °C 3.9 °C 1022.6 hPa Calm   3.2 km/h 92 % 0 mm 0 W/m2
22:14 5.2 °C 3.8 °C 1022.6 hPa Calm     91 % 0 mm 0 W/m2
22:19 5.3 °C 3.9 °C 1022.6 hPa Calm     91 % 0 mm 0 W/m2
22:24 5.4 °C 4.1 °C 1022.6 hPa Calm     91 % 0 mm 0 W/m2
22:29 5.4 °C 3.9 °C 1022.6 hPa Calm     90 % 0 mm 0 W/m2
22:34 5.6 °C 4.1 °C 1022.2 hPa NW 3.2 km/h 9.7 km/h 90 % 0 mm 0 W/m2
22:39 5.7 °C 4.2 °C 1022.2 hPa Calm   3.2 km/h 90 % 0 mm 0 W/m2
22:44 5.7 °C 4 °C 1022.2 hPa Calm     89 % 0 mm 0 W/m2
22:49 5.8 °C 4.1 °C 1022.2 hPa Calm     89 % 0 mm 0 W/m2
22:54 5.8 °C 4.1 °C 1022.2 hPa Calm     89 % 0 mm 0 W/m2
22:59 5.9 °C 4.2 °C 1022.2 hPa Calm     89 % 0 mm 0 W/m2
23:04 5.9 °C 4.2 °C 1021.9 hPa Calm     89 % 0 mm 0 W/m2
23:09 5.9 °C 4.4 °C 1021.9 hPa Calm   3.2 km/h 90 % 0 mm 0 W/m2
23:14 5.9 °C 4.2 °C 1021.6 hPa East 1.6 km/h 4.8 km/h 89 % 0 mm 0 W/m2
23:19 5.9 °C 4.4 °C 1021.6 hPa Calm     90 % 0 mm 0 W/m2
23:24 5.9 °C 4.4 °C 1021.6 hPa SE 1.6 km/h 6.4 km/h 90 % 0 mm 0 W/m2
23:29 6.1 °C 4.6 °C 1021.6 hPa WSW 3.2 km/h 9.7 km/h 90 % 0 mm 0 W/m2
23:34 6.2 °C 4.7 °C 1021.6 hPa Calm     90 % 0 mm 0 W/m2
23:39 6.2 °C 4.7 °C 1021.6 hPa Calm     90 % 0 mm 0 W/m2
23:44 6.3 °C 4.8 °C 1021.6 hPa WSW 1.6 km/h 4.8 km/h 90 % 0 mm 0 W/m2
23:49 6.4 °C 4.9 °C 1021.6 hPa WNW 4.8 km/h 8 km/h 90 % 0 mm 0 W/m2
23:54 6.6 °C 5.1 °C 1021.2 hPa West 6.4 km/h 9.7 km/h 90 % 0 mm 0 W/m2
23:59 6.8 °C 5.3 °C 1021.2 hPa WNW 8 km/h 11.3 km/h 90 % 0 mm 0 W/m2
Delerius-Weather
Compliments of Weather Underground - 2.25 mb

Data updates at regular intervals.